sensor_id;sensor_type;location;lat;lon;timestamp;P1;durP1;ratioP1;P2;durP2;ratioP2
76892;SDS011;65854;51.466;7.260;2022-12-07T00:00:16;39.33;;;19.53;;
76892;SDS011;65854;51.466;7.260;2022-12-07T00:02:42;40.83;;;19.70;;
76892;SDS011;65854;51.466;7.260;2022-12-07T00:05:08;40.33;;;19.10;;
76892;SDS011;65854;51.466;7.260;2022-12-07T00:07:33;39.50;;;18.83;;
76892;SDS011;65854;51.466;7.260;2022-12-07T00:09:59;39.97;;;19.00;;
76892;SDS011;65854;51.466;7.260;2022-12-07T00:12:24;38.13;;;18.00;;
76892;SDS011;65854;51.466;7.260;2022-12-07T00:14:50;36.30;;;17.47;;
76892;SDS011;65854;51.466;7.260;2022-12-07T00:17:15;36.97;;;18.30;;
76892;SDS011;65854;51.466;7.260;2022-12-07T00:19:41;37.03;;;18.50;;
76892;SDS011;65854;51.466;7.260;2022-12-07T00:22:06;35.70;;;17.80;;
76892;SDS011;65854;51.466;7.260;2022-12-07T00:24:32;34.03;;;17.67;;
76892;SDS011;65854;51.466;7.260;2022-12-07T00:26:57;33.85;;;16.75;;
76892;SDS011;65854;51.466;7.260;2022-12-07T00:29:23;31.87;;;17.10;;
76892;SDS011;65854;51.466;7.260;2022-12-07T00:31:48;30.70;;;16.33;;
76892;SDS011;65854;51.466;7.260;2022-12-07T00:34:15;36.78;;;17.23;;
76892;SDS011;65854;51.466;7.260;2022-12-07T00:36:43;31.63;;;16.48;;
76892;SDS011;65854;51.466;7.260;2022-12-07T00:39:09;32.87;;;16.77;;
76892;SDS011;65854;51.466;7.260;2022-12-07T00:41:35;34.60;;;17.05;;
76892;SDS011;65854;51.466;7.260;2022-12-07T00:44:00;33.83;;;17.97;;
76892;SDS011;65854;51.466;7.260;2022-12-07T00:46:26;34.72;;;16.75;;
76892;SDS011;65854;51.466;7.260;2022-12-07T00:48:52;31.87;;;16.37;;
76892;SDS011;65854;51.466;7.260;2022-12-07T00:51:19;31.85;;;16.55;;
76892;SDS011;65854;51.466;7.260;2022-12-07T00:53:46;34.28;;;15.38;;
76892;SDS011;65854;51.466;7.260;2022-12-07T00:56:13;32.97;;;17.33;;
76892;SDS011;65854;51.466;7.260;2022-12-07T00:58:40;35.15;;;17.63;;
76892;SDS011;65854;51.466;7.260;2022-12-07T01:01:06;34.23;;;17.67;;
76892;SDS011;65854;51.466;7.260;2022-12-07T01:03:33;32.60;;;17.70;;
76892;SDS011;65854;51.466;7.260;2022-12-07T01:05:59;33.28;;;16.73;;
76892;SDS011;65854;51.466;7.260;2022-12-07T01:08:26;33.03;;;17.20;;
76892;SDS011;65854;51.466;7.260;2022-12-07T01:13:25;36.03;;;16.63;;
76892;SDS011;65854;51.466;7.260;2022-12-07T01:15:55;35.90;;;17.67;;
76892;SDS011;65854;51.466;7.260;2022-12-07T01:18:23;37.42;;;18.50;;
76892;SDS011;65854;51.466;7.260;2022-12-07T01:23:48;38.83;;;18.25;;
76892;SDS011;65854;51.466;7.260;2022-12-07T01:26:15;39.40;;;18.65;;
76892;SDS011;65854;51.466;7.260;2022-12-07T01:28:42;40.05;;;19.92;;
76892;SDS011;65854;51.466;7.260;2022-12-07T01:31:13;39.70;;;18.92;;
76892;SDS011;65854;51.466;7.260;2022-12-07T01:33:40;43.35;;;19.42;;
76892;SDS011;65854;51.466;7.260;2022-12-07T01:36:16;39.95;;;19.27;;
76892;SDS011;65854;51.466;7.260;2022-12-07T01:38:44;41.35;;;19.38;;
76892;SDS011;65854;51.466;7.260;2022-12-07T01:41:11;41.40;;;19.67;;
76892;SDS011;65854;51.466;7.260;2022-12-07T01:44:06;38.55;;;18.85;;
76892;SDS011;65854;51.466;7.260;2022-12-07T01:46:34;39.95;;;18.55;;
76892;SDS011;65854;51.466;7.260;2022-12-07T01:49:00;42.53;;;20.37;;
76892;SDS011;65854;51.466;7.260;2022-12-07T01:51:28;42.35;;;19.95;;
76892;SDS011;65854;51.466;7.260;2022-12-07T01:53:55;44.30;;;20.80;;
76892;SDS011;65854;51.466;7.260;2022-12-07T01:56:22;41.72;;;19.75;;
76892;SDS011;65854;51.466;7.260;2022-12-07T01:58:51;41.90;;;19.52;;
76892;SDS011;65854;51.466;7.260;2022-12-07T02:01:19;41.30;;;19.63;;
76892;SDS011;65854;51.466;7.260;2022-12-07T02:03:45;42.28;;;19.67;;
76892;SDS011;65854;51.466;7.260;2022-12-07T02:06:13;38.03;;;19.20;;
76892;SDS011;65854;51.466;7.260;2022-12-07T02:08:44;41.72;;;20.65;;
76892;SDS011;65854;51.466;7.260;2022-12-07T02:11:10;40.88;;;20.25;;
76892;SDS011;65854;51.466;7.260;2022-12-07T02:13:37;40.05;;;18.63;;
76892;SDS011;65854;51.466;7.260;2022-12-07T02:19:08;39.63;;;19.17;;
76892;SDS011;65854;51.466;7.260;2022-12-07T02:30:16;38.60;;;18.33;;
76892;SDS011;65854;51.466;7.260;2022-12-07T02:35:20;34.92;;;17.13;;
76892;SDS011;65854;51.466;7.260;2022-12-07T02:40:33;34.53;;;16.70;;
76892;SDS011;65854;51.466;7.260;2022-12-07T02:43:10;33.92;;;16.90;;
76892;SDS011;65854;51.466;7.260;2022-12-07T02:45:49;35.17;;;16.95;;
76892;SDS011;65854;51.466;7.260;2022-12-07T02:48:17;34.17;;;16.80;;
76892;SDS011;65854;51.466;7.260;2022-12-07T02:50:47;37.53;;;17.37;;
76892;SDS011;65854;51.466;7.260;2022-12-07T02:55:57;31.67;;;15.68;;
76892;SDS011;65854;51.466;7.260;2022-12-07T02:58:31;35.40;;;16.00;;
76892;SDS011;65854;51.466;7.260;2022-12-07T03:06:53;26.83;;;13.38;;
76892;SDS011;65854;51.466;7.260;2022-12-07T03:09:31;28.25;;;14.68;;
76892;SDS011;65854;51.466;7.260;2022-12-07T03:12:06;27.88;;;14.32;;
76892;SDS011;65854;51.466;7.260;2022-12-07T03:14:40;28.45;;;14.30;;
76892;SDS011;65854;51.466;7.260;2022-12-07T03:17:18;32.73;;;14.23;;
76892;SDS011;65854;51.466;7.260;2022-12-07T03:19:48;32.03;;;14.32;;
76892;SDS011;65854;51.466;7.260;2022-12-07T03:22:16;28.92;;;14.52;;
76892;SDS011;65854;51.466;7.260;2022-12-07T03:24:47;31.75;;;15.05;;
76892;SDS011;65854;51.466;7.260;2022-12-07T03:27:24;32.15;;;15.20;;
76892;SDS011;65854;51.466;7.260;2022-12-07T03:30:37;34.80;;;14.60;;
76892;SDS011;65854;51.466;7.260;2022-12-07T03:35:31;28.10;;;14.32;;
76892;SDS011;65854;51.466;7.260;2022-12-07T03:40:57;29.55;;;14.93;;
76892;SDS011;65854;51.466;7.260;2022-12-07T03:43:54;31.50;;;14.07;;
76892;SDS011;65854;51.466;7.260;2022-12-07T03:46:29;26.42;;;14.02;;
76892;SDS011;65854;51.466;7.260;2022-12-07T03:52:17;31.33;;;14.48;;
76892;SDS011;65854;51.466;7.260;2022-12-07T03:54:55;29.10;;;14.20;;
76892;SDS011;65854;51.466;7.260;2022-12-07T03:57:39;28.70;;;13.53;;
76892;SDS011;65854;51.466;7.260;2022-12-07T04:00:08;31.70;;;13.88;;
76892;SDS011;65854;51.466;7.260;2022-12-07T04:02:35;29.52;;;15.52;;
76892;SDS011;65854;51.466;7.260;2022-12-07T04:05:01;31.50;;;15.18;;
76892;SDS011;65854;51.466;7.260;2022-12-07T04:07:27;31.67;;;14.63;;
76892;SDS011;65854;51.466;7.260;2022-12-07T04:09:52;29.60;;;14.63;;
76892;SDS011;65854;51.466;7.260;2022-12-07T04:12:19;29.95;;;14.88;;
76892;SDS011;65854;51.466;7.260;2022-12-07T04:14:45;30.23;;;13.30;;
76892;SDS011;65854;51.466;7.260;2022-12-07T04:17:11;27.48;;;13.18;;
76892;SDS011;65854;51.466;7.260;2022-12-07T04:19:36;28.47;;;14.10;;
76892;SDS011;65854;51.466;7.260;2022-12-07T04:22:02;30.30;;;14.03;;
76892;SDS011;65854;51.466;7.260;2022-12-07T04:24:29;28.50;;;12.80;;
76892;SDS011;65854;51.466;7.260;2022-12-07T04:26:55;28.90;;;13.90;;
76892;SDS011;65854;51.466;7.260;2022-12-07T04:29:20;28.75;;;12.80;;
76892;SDS011;65854;51.466;7.260;2022-12-07T04:31:46;28.05;;;12.68;;
76892;SDS011;65854;51.466;7.260;2022-12-07T04:34:13;30.73;;;13.70;;
76892;SDS011;65854;51.466;7.260;2022-12-07T04:36:39;28.42;;;13.68;;
76892;SDS011;65854;51.466;7.260;2022-12-07T04:39:06;26.52;;;12.82;;
76892;SDS011;65854;51.466;7.260;2022-12-07T04:41:33;29.92;;;13.85;;
76892;SDS011;65854;51.466;7.260;2022-12-07T04:43:59;28.57;;;13.47;;
76892;SDS011;65854;51.466;7.260;2022-12-07T04:46:27;29.42;;;13.60;;
76892;SDS011;65854;51.466;7.260;2022-12-07T04:48:54;30.77;;;13.40;;
76892;SDS011;65854;51.466;7.260;2022-12-07T04:51:21;33.10;;;13.07;;
76892;SDS011;65854;51.466;7.260;2022-12-07T04:53:49;27.60;;;12.82;;
76892;SDS011;65854;51.466;7.260;2022-12-07T04:56:15;30.73;;;12.88;;
76892;SDS011;65854;51.466;7.260;2022-12-07T04:58:42;30.80;;;13.85;;
76892;SDS011;65854;51.466;7.260;2022-12-07T05:01:09;26.73;;;12.75;;
76892;SDS011;65854;51.466;7.260;2022-12-07T05:03:39;27.03;;;12.30;;
76892;SDS011;65854;51.466;7.260;2022-12-07T05:06:04;25.35;;;11.80;;
76892;SDS011;65854;51.466;7.260;2022-12-07T05:08:31;30.27;;;12.73;;
76892;SDS011;65854;51.466;7.260;2022-12-07T05:10:57;28.75;;;13.07;;
76892;SDS011;65854;51.466;7.260;2022-12-07T05:13:23;29.10;;;12.48;;
76892;SDS011;65854;51.466;7.260;2022-12-07T05:15:49;28.73;;;12.13;;
76892;SDS011;65854;51.466;7.260;2022-12-07T05:18:15;28.48;;;12.52;;
76892;SDS011;65854;51.466;7.260;2022-12-07T05:20:41;28.25;;;12.10;;
76892;SDS011;65854;51.466;7.260;2022-12-07T05:23:07;28.83;;;12.93;;
76892;SDS011;65854;51.466;7.260;2022-12-07T05:25:36;29.88;;;13.45;;
76892;SDS011;65854;51.466;7.260;2022-12-07T05:28:02;29.25;;;12.40;;
76892;SDS011;65854;51.466;7.260;2022-12-07T05:30:28;32.33;;;12.30;;
76892;SDS011;65854;51.466;7.260;2022-12-07T05:32:54;27.87;;;12.93;;
76892;SDS011;65854;51.466;7.260;2022-12-07T05:35:20;30.58;;;12.82;;
76892;SDS011;65854;51.466;7.260;2022-12-07T05:37:46;26.77;;;11.60;;
76892;SDS011;65854;51.466;7.260;2022-12-07T05:40:11;26.30;;;12.55;;
76892;SDS011;65854;51.466;7.260;2022-12-07T05:42:38;28.10;;;11.68;;
76892;SDS011;65854;51.466;7.260;2022-12-07T05:45:04;26.73;;;12.60;;
76892;SDS011;65854;51.466;7.260;2022-12-07T05:47:31;29.48;;;12.52;;
76892;SDS011;65854;51.466;7.260;2022-12-07T05:49:56;30.47;;;12.83;;
76892;SDS011;65854;51.466;7.260;2022-12-07T05:52:22;25.20;;;12.05;;
76892;SDS011;65854;51.466;7.260;2022-12-07T05:54:47;31.27;;;12.73;;
76892;SDS011;65854;51.466;7.260;2022-12-07T05:57:13;28.52;;;12.57;;
76892;SDS011;65854;51.466;7.260;2022-12-07T05:59:39;30.53;;;13.37;;
76892;SDS011;65854;51.466;7.260;2022-12-07T06:02:06;31.83;;;13.50;;
76892;SDS011;65854;51.466;7.260;2022-12-07T06:04:35;32.17;;;13.23;;
76892;SDS011;65854;51.466;7.260;2022-12-07T06:07:03;29.73;;;12.90;;
76892;SDS011;65854;51.466;7.260;2022-12-07T06:09:29;26.95;;;12.80;;
76892;SDS011;65854;51.466;7.260;2022-12-07T06:11:55;29.02;;;13.00;;
76892;SDS011;65854;51.466;7.260;2022-12-07T06:14:56;29.08;;;12.63;;
76892;SDS011;65854;51.466;7.260;2022-12-07T06:17:23;26.77;;;12.45;;
76892;SDS011;65854;51.466;7.260;2022-12-07T06:19:48;25.30;;;12.02;;
76892;SDS011;65854;51.466;7.260;2022-12-07T06:22:14;28.20;;;12.68;;
76892;SDS011;65854;51.466;7.260;2022-12-07T06:24:41;25.92;;;11.48;;
76892;SDS011;65854;51.466;7.260;2022-12-07T06:27:07;25.15;;;10.85;;
76892;SDS011;65854;51.466;7.260;2022-12-07T06:29:33;26.63;;;12.18;;
76892;SDS011;65854;51.466;7.260;2022-12-07T06:31:59;24.17;;;11.70;;
76892;SDS011;65854;51.466;7.260;2022-12-07T06:34:25;27.50;;;11.87;;
76892;SDS011;65854;51.466;7.260;2022-12-07T06:36:51;24.92;;;11.70;;
76892;SDS011;65854;51.466;7.260;2022-12-07T06:39:20;25.38;;;10.55;;
76892;SDS011;65854;51.466;7.260;2022-12-07T06:41:47;22.52;;;11.07;;
76892;SDS011;65854;51.466;7.260;2022-12-07T06:44:13;26.23;;;11.27;;
76892;SDS011;65854;51.466;7.260;2022-12-07T06:46:38;24.17;;;10.70;;
76892;SDS011;65854;51.466;7.260;2022-12-07T06:49:04;22.30;;;10.93;;
76892;SDS011;65854;51.466;7.260;2022-12-07T06:51:30;24.57;;;11.23;;
76892;SDS011;65854;51.466;7.260;2022-12-07T06:53:57;24.73;;;11.00;;
76892;SDS011;65854;51.466;7.260;2022-12-07T06:56:22;24.77;;;10.00;;
76892;SDS011;65854;51.466;7.260;2022-12-07T06:58:48;23.50;;;10.18;;
76892;SDS011;65854;51.466;7.260;2022-12-07T07:01:15;25.73;;;10.93;;
76892;SDS011;65854;51.466;7.260;2022-12-07T07:03:42;24.42;;;11.00;;
76892;SDS011;65854;51.466;7.260;2022-12-07T07:06:08;23.42;;;9.90;;
76892;SDS011;65854;51.466;7.260;2022-12-07T07:08:34;17.88;;;8.73;;
76892;SDS011;65854;51.466;7.260;2022-12-07T07:11:01;19.98;;;9.00;;
76892;SDS011;65854;51.466;7.260;2022-12-07T07:13:27;22.40;;;9.50;;
76892;SDS011;65854;51.466;7.260;2022-12-07T07:15:53;21.73;;;8.87;;
76892;SDS011;65854;51.466;7.260;2022-12-07T07:18:19;24.90;;;9.90;;
76892;SDS011;65854;51.466;7.260;2022-12-07T07:20:44;21.17;;;9.60;;
76892;SDS011;65854;51.466;7.260;2022-12-07T07:23:10;24.43;;;9.50;;
76892;SDS011;65854;51.466;7.260;2022-12-07T07:25:35;20.07;;;8.53;;
76892;SDS011;65854;51.466;7.260;2022-12-07T07:28:01;21.73;;;9.68;;
76892;SDS011;65854;51.466;7.260;2022-12-07T07:30:27;23.43;;;9.73;;
76892;SDS011;65854;51.466;7.260;2022-12-07T07:32:56;20.70;;;9.18;;
76892;SDS011;65854;51.466;7.260;2022-12-07T07:35:23;25.23;;;10.30;;
76892;SDS011;65854;51.466;7.260;2022-12-07T07:37:49;25.42;;;10.02;;
76892;SDS011;65854;51.466;7.260;2022-12-07T07:40:15;27.13;;;10.47;;
76892;SDS011;65854;51.466;7.260;2022-12-07T07:42:40;22.83;;;10.20;;
76892;SDS011;65854;51.466;7.260;2022-12-07T07:45:06;25.60;;;10.20;;
76892;SDS011;65854;51.466;7.260;2022-12-07T07:47:32;23.13;;;10.05;;
76892;SDS011;65854;51.466;7.260;2022-12-07T07:49:58;23.70;;;10.07;;
76892;SDS011;65854;51.466;7.260;2022-12-07T07:52:23;23.37;;;10.17;;
76892;SDS011;65854;51.466;7.260;2022-12-07T07:54:49;20.83;;;9.88;;
76892;SDS011;65854;51.466;7.260;2022-12-07T07:57:15;22.37;;;10.70;;
76892;SDS011;65854;51.466;7.260;2022-12-07T07:59:41;22.65;;;9.73;;
76892;SDS011;65854;51.466;7.260;2022-12-07T08:02:09;20.47;;;9.37;;
76892;SDS011;65854;51.466;7.260;2022-12-07T08:04:39;19.10;;;9.35;;
76892;SDS011;65854;51.466;7.260;2022-12-07T08:07:05;23.53;;;9.57;;
76892;SDS011;65854;51.466;7.260;2022-12-07T08:09:30;20.75;;;9.00;;
76892;SDS011;65854;51.466;7.260;2022-12-07T08:11:56;20.80;;;8.70;;
76892;SDS011;65854;51.466;7.260;2022-12-07T08:14:22;22.67;;;10.18;;
76892;SDS011;65854;51.466;7.260;2022-12-07T08:16:48;21.85;;;8.88;;
76892;SDS011;65854;51.466;7.260;2022-12-07T08:19:14;17.07;;;8.00;;
76892;SDS011;65854;51.466;7.260;2022-12-07T08:21:39;23.73;;;8.50;;
76892;SDS011;65854;51.466;7.260;2022-12-07T08:24:05;19.20;;;8.38;;
76892;SDS011;65854;51.466;7.260;2022-12-07T08:26:30;21.17;;;8.75;;
76892;SDS011;65854;51.466;7.260;2022-12-07T08:28:56;19.33;;;8.77;;
76892;SDS011;65854;51.466;7.260;2022-12-07T08:31:21;21.67;;;8.15;;
76892;SDS011;65854;51.466;7.260;2022-12-07T08:33:47;22.13;;;8.53;;
76892;SDS011;65854;51.466;7.260;2022-12-07T08:36:13;20.77;;;8.18;;
76892;SDS011;65854;51.466;7.260;2022-12-07T08:38:39;21.92;;;8.82;;
76892;SDS011;65854;51.466;7.260;2022-12-07T08:41:06;17.43;;;7.63;;
76892;SDS011;65854;51.466;7.260;2022-12-07T08:43:32;22.60;;;8.60;;
76892;SDS011;65854;51.466;7.260;2022-12-07T08:48:50;18.30;;;8.10;;
76892;SDS011;65854;51.466;7.260;2022-12-07T08:51:16;20.40;;;7.80;;
76892;SDS011;65854;51.466;7.260;2022-12-07T08:53:42;18.38;;;8.20;;
76892;SDS011;65854;51.466;7.260;2022-12-07T08:56:08;22.48;;;8.35;;
76892;SDS011;65854;51.466;7.260;2022-12-07T08:58:37;19.33;;;7.82;;
76892;SDS011;65854;51.466;7.260;2022-12-07T09:01:03;19.83;;;7.97;;
76892;SDS011;65854;51.466;7.260;2022-12-07T09:03:29;18.67;;;7.57;;
76892;SDS011;65854;51.466;7.260;2022-12-07T09:05:55;18.67;;;7.87;;
76892;SDS011;65854;51.466;7.260;2022-12-07T09:08:21;18.38;;;7.78;;
76892;SDS011;65854;51.466;7.260;2022-12-07T09:10:51;19.88;;;7.65;;
76892;SDS011;65854;51.466;7.260;2022-12-07T09:13:16;18.92;;;7.30;;
76892;SDS011;65854;51.466;7.260;2022-12-07T09:15:42;20.93;;;7.70;;
76892;SDS011;65854;51.466;7.260;2022-12-07T09:18:07;18.40;;;7.07;;
76892;SDS011;65854;51.466;7.260;2022-12-07T09:20:33;16.83;;;7.50;;
76892;SDS011;65854;51.466;7.260;2022-12-07T09:22:58;19.43;;;8.07;;
76892;SDS011;65854;51.466;7.260;2022-12-07T09:25:24;20.90;;;8.00;;
76892;SDS011;65854;51.466;7.260;2022-12-07T09:27:59;17.57;;;7.17;;
76892;SDS011;65854;51.466;7.260;2022-12-07T09:30:25;20.92;;;7.72;;
76892;SDS011;65854;51.466;7.260;2022-12-07T09:32:55;19.88;;;7.53;;
76892;SDS011;65854;51.466;7.260;2022-12-07T09:35:21;17.38;;;7.38;;
76892;SDS011;65854;51.466;7.260;2022-12-07T09:37:47;20.45;;;7.72;;
76892;SDS011;65854;51.466;7.260;2022-12-07T09:40:13;18.70;;;8.40;;
76892;SDS011;65854;51.466;7.260;2022-12-07T09:42:41;23.60;;;10.20;;
76892;SDS011;65854;51.466;7.260;2022-12-07T09:45:19;22.75;;;10.05;;
76892;SDS011;65854;51.466;7.260;2022-12-07T09:47:57;23.83;;;10.55;;
76892;SDS011;65854;51.466;7.260;2022-12-07T09:50:25;21.45;;;10.30;;
76892;SDS011;65854;51.466;7.260;2022-12-07T09:52:53;24.73;;;11.20;;
76892;SDS011;65854;51.466;7.260;2022-12-07T09:55:30;25.48;;;11.48;;
76892;SDS011;65854;51.466;7.260;2022-12-07T09:57:56;25.73;;;10.90;;
76892;SDS011;65854;51.466;7.260;2022-12-07T10:00:23;26.02;;;11.40;;
76892;SDS011;65854;51.466;7.260;2022-12-07T10:02:52;22.48;;;10.85;;
76892;SDS011;65854;51.466;7.260;2022-12-07T10:05:23;24.88;;;10.07;;
76892;SDS011;65854;51.466;7.260;2022-12-07T10:07:52;21.50;;;10.00;;
76892;SDS011;65854;51.466;7.260;2022-12-07T10:10:22;20.95;;;9.55;;
76892;SDS011;65854;51.466;7.260;2022-12-07T10:13:10;19.80;;;10.00;;
76892;SDS011;65854;51.466;7.260;2022-12-07T10:15:45;21.38;;;9.30;;
76892;SDS011;65854;51.466;7.260;2022-12-07T10:18:27;22.27;;;8.93;;
76892;SDS011;65854;51.466;7.260;2022-12-07T10:24:02;18.98;;;7.93;;
76892;SDS011;65854;51.466;7.260;2022-12-07T10:31:57;21.65;;;9.07;;
76892;SDS011;65854;51.466;7.260;2022-12-07T10:34:26;20.50;;;8.45;;
76892;SDS011;65854;51.466;7.260;2022-12-07T10:37:33;17.10;;;7.57;;
76892;SDS011;65854;51.466;7.260;2022-12-07T10:39:56;17.08;;;7.50;;
76892;SDS011;65854;51.466;7.260;2022-12-07T10:42:26;19.27;;;6.85;;
76892;SDS011;65854;51.466;7.260;2022-12-07T10:48:03;15.45;;;6.85;;
76892;SDS011;65854;51.466;7.260;2022-12-07T10:50:52;17.05;;;6.60;;
76892;SDS011;65854;51.466;7.260;2022-12-07T11:22:01;18.20;;;6.32;;
76892;SDS011;65854;51.466;7.260;2022-12-07T11:30:21;14.38;;;5.90;;
76892;SDS011;65854;51.466;7.260;2022-12-07T11:38:11;16.25;;;5.20;;
76892;SDS011;65854;51.466;7.260;2022-12-07T11:40:49;15.20;;;4.78;;
76892;SDS011;65854;51.466;7.260;2022-12-07T11:43:24;17.50;;;5.55;;
76892;SDS011;65854;51.466;7.260;2022-12-07T11:46:00;12.95;;;4.63;;
76892;SDS011;65854;51.466;7.260;2022-12-07T11:48:38;15.23;;;3.90;;
76892;SDS011;65854;51.466;7.260;2022-12-07T11:51:06;14.38;;;3.85;;
76892;SDS011;65854;51.466;7.260;2022-12-07T11:53:49;13.75;;;3.75;;
76892;SDS011;65854;51.466;7.260;2022-12-07T11:56:26;15.95;;;3.55;;
76892;SDS011;65854;51.466;7.260;2022-12-07T11:59:00;11.15;;;3.50;;
76892;SDS011;65854;51.466;7.260;2022-12-07T12:06:38;10.10;;;3.00;;
76892;SDS011;65854;51.466;7.260;2022-12-07T12:15:21;9.05;;;2.20;;
76892;SDS011;65854;51.466;7.260;2022-12-07T12:18:22;9.73;;;2.47;;
76892;SDS011;65854;51.466;7.260;2022-12-07T12:20:49;9.52;;;2.50;;
76892;SDS011;65854;51.466;7.260;2022-12-07T12:23:19;9.93;;;2.92;;
76892;SDS011;65854;51.466;7.260;2022-12-07T12:25:59;12.35;;;2.40;;
76892;SDS011;65854;51.466;7.260;2022-12-07T12:31:31;7.47;;;2.40;;
76892;SDS011;65854;51.466;7.260;2022-12-07T12:33:58;10.65;;;2.05;;
76892;SDS011;65854;51.466;7.260;2022-12-07T12:44:01;9.05;;;2.03;;
76892;SDS011;65854;51.466;7.260;2022-12-07T12:51:41;10.63;;;2.50;;
76892;SDS011;65854;51.466;7.260;2022-12-07T12:54:19;12.63;;;2.90;;
76892;SDS011;65854;51.466;7.260;2022-12-07T12:59:34;12.45;;;2.80;;
76892;SDS011;65854;51.466;7.260;2022-12-07T13:08:17;13.13;;;2.33;;
76892;SDS011;65854;51.466;7.260;2022-12-07T13:10:43;9.38;;;2.10;;
76892;SDS011;65854;51.466;7.260;2022-12-07T13:18:35;12.40;;;2.60;;
76892;SDS011;65854;51.466;7.260;2022-12-07T13:34:04;13.23;;;4.40;;
76892;SDS011;65854;51.466;7.260;2022-12-07T13:36:50;12.20;;;4.30;;
76892;SDS011;65854;51.466;7.260;2022-12-07T13:39:18;20.70;;;5.20;;
76892;SDS011;65854;51.466;7.260;2022-12-07T13:41:52;16.13;;;5.03;;
76892;SDS011;65854;51.466;7.260;2022-12-07T13:44:20;13.15;;;5.18;;
76892;SDS011;65854;51.466;7.260;2022-12-07T13:49:47;12.05;;;5.20;;
76892;SDS011;65854;51.466;7.260;2022-12-07T13:52:24;15.65;;;5.35;;
76892;SDS011;65854;51.466;7.260;2022-12-07T13:57:38;13.10;;;5.70;;
76892;SDS011;65854;51.466;7.260;2022-12-07T14:00:05;19.08;;;5.72;;
76892;SDS011;65854;51.466;7.260;2022-12-07T14:02:54;15.10;;;5.70;;
76892;SDS011;65854;51.466;7.260;2022-12-07T14:05:28;21.20;;;7.00;;
76892;SDS011;65854;51.466;7.260;2022-12-07T14:07:56;14.60;;;6.30;;
76892;SDS011;65854;51.466;7.260;2022-12-07T14:10:36;16.88;;;5.90;;
76892;SDS011;65854;51.466;7.260;2022-12-07T14:18:45;6.45;;;1.83;;
76892;SDS011;65854;51.466;7.260;2022-12-07T14:21:18;7.18;;;2.13;;
76892;SDS011;65854;51.466;7.260;2022-12-07T14:26:33;7.00;;;2.20;;
76892;SDS011;65854;51.466;7.260;2022-12-07T14:31:56;6.15;;;1.80;;
76892;SDS011;65854;51.466;7.260;2022-12-07T14:34:23;8.40;;;2.55;;
76892;SDS011;65854;51.466;7.260;2022-12-07T14:36:50;8.50;;;2.38;;
76892;SDS011;65854;51.466;7.260;2022-12-07T14:39:16;9.35;;;2.60;;
76892;SDS011;65854;51.466;7.260;2022-12-07T14:41:42;12.23;;;2.67;;
76892;SDS011;65854;51.466;7.260;2022-12-07T14:44:17;7.25;;;2.30;;
76892;SDS011;65854;51.466;7.260;2022-12-07T14:46:45;9.87;;;2.53;;
76892;SDS011;65854;51.466;7.260;2022-12-07T14:49:11;9.88;;;3.00;;
76892;SDS011;65854;51.466;7.260;2022-12-07T14:51:37;11.77;;;3.13;;
76892;SDS011;65854;51.466;7.260;2022-12-07T14:54:06;8.97;;;2.73;;
76892;SDS011;65854;51.466;7.260;2022-12-07T14:56:36;11.02;;;3.40;;
76892;SDS011;65854;51.466;7.260;2022-12-07T14:59:01;11.18;;;3.65;;
76892;SDS011;65854;51.466;7.260;2022-12-07T15:01:27;16.40;;;4.18;;
76892;SDS011;65854;51.466;7.260;2022-12-07T15:03:53;14.07;;;4.47;;
76892;SDS011;65854;51.466;7.260;2022-12-07T15:06:18;11.18;;;3.90;;
76892;SDS011;65854;51.466;7.260;2022-12-07T15:08:44;14.67;;;4.80;;
76892;SDS011;65854;51.466;7.260;2022-12-07T15:11:14;12.95;;;4.75;;
76892;SDS011;65854;51.466;7.260;2022-12-07T15:13:40;11.77;;;4.90;;
76892;SDS011;65854;51.466;7.260;2022-12-07T15:16:24;15.40;;;5.70;;
76892;SDS011;65854;51.466;7.260;2022-12-07T15:18:49;14.95;;;5.32;;
76892;SDS011;65854;51.466;7.260;2022-12-07T15:21:16;13.32;;;6.05;;
76892;SDS011;65854;51.466;7.260;2022-12-07T15:23:42;14.73;;;6.20;;
76892;SDS011;65854;51.466;7.260;2022-12-07T15:26:10;13.07;;;6.18;;
76892;SDS011;65854;51.466;7.260;2022-12-07T15:28:35;10.40;;;4.90;;
76892;SDS011;65854;51.466;7.260;2022-12-07T15:31:01;13.90;;;5.83;;
76892;SDS011;65854;51.466;7.260;2022-12-07T15:33:27;13.30;;;5.20;;
76892;SDS011;65854;51.466;7.260;2022-12-07T15:35:52;14.38;;;5.13;;
76892;SDS011;65854;51.466;7.260;2022-12-07T15:38:18;15.27;;;5.30;;
76892;SDS011;65854;51.466;7.260;2022-12-07T15:40:47;14.75;;;5.85;;
76892;SDS011;65854;51.466;7.260;2022-12-07T15:43:13;16.05;;;5.07;;
76892;SDS011;65854;51.466;7.260;2022-12-07T15:45:57;11.97;;;5.03;;
76892;SDS011;65854;51.466;7.260;2022-12-07T15:48:23;20.33;;;5.97;;
76892;SDS011;65854;51.466;7.260;2022-12-07T15:50:48;15.80;;;5.40;;
76892;SDS011;65854;51.466;7.260;2022-12-07T15:53:14;11.03;;;4.93;;
76892;SDS011;65854;51.466;7.260;2022-12-07T15:55:39;14.07;;;4.67;;
76892;SDS011;65854;51.466;7.260;2022-12-07T15:58:05;12.30;;;5.53;;
76892;SDS011;65854;51.466;7.260;2022-12-07T16:00:31;12.07;;;5.30;;
76892;SDS011;65854;51.466;7.260;2022-12-07T16:02:57;13.60;;;5.63;;
76892;SDS011;65854;51.466;7.260;2022-12-07T16:05:22;12.47;;;5.07;;
76892;SDS011;65854;51.466;7.260;2022-12-07T16:07:48;16.70;;;6.07;;
76892;SDS011;65854;51.466;7.260;2022-12-07T16:10:14;15.17;;;5.50;;
76892;SDS011;65854;51.466;7.260;2022-12-07T16:12:39;15.45;;;5.60;;
76892;SDS011;65854;51.466;7.260;2022-12-07T16:15:05;12.93;;;5.33;;
76892;SDS011;65854;51.466;7.260;2022-12-07T16:17:31;11.43;;;5.10;;
76892;SDS011;65854;51.466;7.260;2022-12-07T16:19:57;13.67;;;5.30;;
76892;SDS011;65854;51.466;7.260;2022-12-07T16:22:23;10.23;;;5.18;;
76892;SDS011;65854;51.466;7.260;2022-12-07T16:24:48;10.87;;;4.83;;
76892;SDS011;65854;51.466;7.260;2022-12-07T16:27:14;14.85;;;5.38;;
76892;SDS011;65854;51.466;7.260;2022-12-07T16:29:40;12.07;;;5.13;;
76892;SDS011;65854;51.466;7.260;2022-12-07T16:32:05;11.30;;;5.00;;
76892;SDS011;65854;51.466;7.260;2022-12-07T16:34:31;13.30;;;5.05;;
76892;SDS011;65854;51.466;7.260;2022-12-07T16:36:57;13.68;;;4.50;;
76892;SDS011;65854;51.466;7.260;2022-12-07T16:39:22;11.87;;;4.13;;
76892;SDS011;65854;51.466;7.260;2022-12-07T16:41:49;12.00;;;4.40;;
76892;SDS011;65854;51.466;7.260;2022-12-07T16:44:15;13.07;;;5.20;;
76892;SDS011;65854;51.466;7.260;2022-12-07T16:46:41;11.77;;;4.70;;
76892;SDS011;65854;51.466;7.260;2022-12-07T16:49:09;14.70;;;4.75;;
76892;SDS011;65854;51.466;7.260;2022-12-07T16:51:37;14.32;;;4.93;;
76892;SDS011;65854;51.466;7.260;2022-12-07T16:54:02;8.85;;;4.15;;
76892;SDS011;65854;51.466;7.260;2022-12-07T16:56:28;11.17;;;4.80;;
76892;SDS011;65854;51.466;7.260;2022-12-07T16:58:54;11.73;;;4.80;;
76892;SDS011;65854;51.466;7.260;2022-12-07T17:01:20;10.50;;;4.27;;
76892;SDS011;65854;51.466;7.260;2022-12-07T17:03:52;10.55;;;4.20;;
76892;SDS011;65854;51.466;7.260;2022-12-07T17:06:20;11.10;;;4.30;;
76892;SDS011;65854;51.466;7.260;2022-12-07T17:08:50;12.23;;;4.70;;
76892;SDS011;65854;51.466;7.260;2022-12-07T17:11:17;12.77;;;4.60;;
76892;SDS011;65854;51.466;7.260;2022-12-07T17:13:48;13.02;;;5.10;;
76892;SDS011;65854;51.466;7.260;2022-12-07T17:16:32;10.93;;;4.70;;
76892;SDS011;65854;51.466;7.260;2022-12-07T17:18:59;14.88;;;4.80;;
76892;SDS011;65854;51.466;7.260;2022-12-07T17:21:28;11.35;;;5.20;;